createdAt,value
2018-08-30T00:01:07.915Z,5.50
2018-08-30T00:03:36.317Z,4.60
2018-08-30T00:06:04.766Z,4.90
2018-08-30T00:08:33.243Z,3.37
2018-08-30T00:11:01.640Z,4.67
2018-08-30T00:13:30.053Z,4.53
2018-08-30T00:15:58.540Z,4.93
2018-08-30T00:18:26.941Z,5.57
2018-08-30T00:20:55.358Z,5.23
2018-08-30T00:23:23.786Z,6.23
2018-08-30T00:25:52.220Z,5.03
2018-08-30T00:28:20.717Z,7.67
2018-08-30T00:30:49.130Z,5.97
2018-08-30T00:33:17.551Z,5.20
2018-08-30T00:35:46.202Z,6.33
2018-08-30T00:38:14.619Z,6.40
2018-08-30T00:40:43.029Z,9.10
2018-08-30T00:43:11.653Z,6.87
2018-08-30T00:45:40.090Z,5.40
2018-08-30T00:48:08.503Z,4.97
2018-08-30T00:50:36.926Z,6.83
2018-08-30T00:53:05.416Z,11.53
2018-08-30T00:55:33.847Z,6.87
2018-08-30T00:58:02.247Z,4.97
2018-08-30T01:00:30.673Z,5.70
2018-08-30T01:02:59.159Z,4.40
2018-08-30T01:05:27.565Z,4.60
2018-08-30T01:07:56.004Z,6.30
2018-08-30T01:10:24.449Z,6.20
2018-08-30T01:12:54.757Z,5.10
2018-08-30T01:15:25.124Z,5.73
2018-08-30T01:17:53.881Z,4.43
2018-08-30T01:20:22.790Z,4.17
2018-08-30T01:22:51.702Z,5.00
2018-08-30T01:25:20.252Z,6.07
2018-08-30T01:27:49.364Z,5.77
2018-08-30T01:30:18.146Z,4.77
2018-08-30T01:32:46.809Z,5.80
2018-08-30T01:35:15.262Z,4.90
2018-08-30T01:37:43.693Z,3.30
2018-08-30T01:40:12.373Z,3.67
2018-08-30T01:42:40.805Z,3.70
2018-08-30T01:45:09.246Z,4.17
2018-08-30T01:47:37.697Z,5.53
2018-08-30T01:50:06.157Z,2.87
2018-08-30T01:52:34.562Z,3.77
2018-08-30T01:55:03.009Z,8.10
2018-08-30T01:57:31.397Z,3.87
2018-08-30T01:59:59.837Z,4.03
2018-08-30T02:02:28.258Z,3.50
2018-08-30T02:04:56.688Z,4.43
2018-08-30T02:07:25.112Z,4.90
2018-08-30T02:09:53.530Z,3.97
2018-08-30T02:12:21.961Z,4.60
2018-08-30T02:14:50.356Z,4.97
2018-08-30T02:17:18.842Z,5.10
2018-08-30T02:19:47.254Z,6.57
2018-08-30T02:22:15.663Z,3.77
2018-08-30T02:24:47.630Z,3.87
2018-08-30T02:27:16.249Z,4.80
2018-08-30T02:29:44.661Z,4.00
2018-08-30T02:32:13.086Z,6.70
2018-08-30T02:34:41.536Z,4.80
2018-08-30T02:37:10.803Z,4.33
2018-08-30T02:39:39.421Z,5.87
2018-08-30T02:42:07.849Z,4.90
2018-08-30T02:44:36.294Z,4.67
2018-08-30T02:47:04.892Z,5.30
2018-08-30T02:49:33.301Z,4.87
2018-08-30T02:52:01.739Z,4.00
2018-08-30T02:54:30.234Z,6.17
2018-08-30T02:56:58.625Z,5.37
2018-08-30T02:59:27.038Z,4.67
2018-08-30T03:01:55.460Z,5.10
2018-08-30T03:04:23.900Z,5.70
2018-08-30T03:06:52.302Z,5.27
2018-08-30T03:09:20.775Z,4.77
2018-08-30T03:11:49.227Z,6.37
2018-08-30T03:14:17.653Z,4.60
2018-08-30T03:16:46.065Z,3.70
2018-08-30T03:19:14.528Z,7.73
2018-08-30T03:21:43.245Z,4.30
2018-08-30T03:24:11.741Z,6.17
2018-08-30T03:26:40.153Z,5.20
2018-08-30T03:29:08.566Z,8.30
2018-08-30T03:31:36.996Z,4.40
2018-08-30T03:34:05.893Z,6.77
2018-08-30T03:36:34.302Z,7.53
2018-08-30T03:39:02.786Z,6.60
2018-08-30T03:41:31.202Z,9.40
2018-08-30T03:43:59.621Z,6.47
2018-08-30T03:46:28.025Z,6.97
2018-08-30T03:48:56.436Z,6.83
2018-08-30T03:51:24.853Z,7.10
2018-08-30T03:53:53.270Z,6.73
2018-08-30T03:56:21.706Z,5.47
2018-08-30T03:58:50.178Z,6.00
2018-08-30T04:01:18.602Z,7.17
2018-08-30T04:03:47.022Z,6.57
2018-08-30T04:06:15.469Z,6.90
2018-08-30T04:08:43.890Z,7.93
2018-08-30T04:11:12.310Z,12.53
2018-08-30T04:13:40.747Z,5.87
2018-08-30T04:16:09.118Z,6.47
2018-08-30T04:18:37.546Z,6.63
2018-08-30T04:21:05.950Z,8.93
2018-08-30T04:23:34.366Z,5.20
2018-08-30T04:26:02.794Z,5.43
2018-08-30T04:28:31.202Z,5.10
2018-08-30T04:30:59.870Z,5.20
2018-08-30T04:33:28.258Z,7.00
2018-08-30T04:35:56.913Z,5.30
2018-08-30T04:38:25.325Z,5.90
2018-08-30T04:40:53.733Z,8.20
2018-08-30T04:43:22.137Z,4.80
2018-08-30T04:45:50.566Z,6.03
2018-08-30T04:48:18.961Z,5.87
2018-08-30T04:50:47.382Z,6.33
2018-08-30T04:53:15.796Z,4.90
2018-08-30T04:55:44.230Z,6.53
2018-08-30T04:58:12.641Z,5.00
2018-08-30T05:00:41.053Z,5.70
2018-08-30T05:03:09.486Z,4.77
2018-08-30T05:05:37.921Z,5.10
2018-08-30T05:08:06.621Z,5.00
2018-08-30T05:10:35.090Z,4.80
2018-08-30T05:13:03.505Z,5.90
2018-08-30T05:15:32.028Z,6.10
2018-08-30T05:18:00.658Z,4.73
2018-08-30T05:20:29.061Z,4.73
2018-08-30T05:22:57.493Z,7.00
2018-08-30T05:25:25.917Z,6.47
2018-08-30T05:27:54.311Z,4.50
2018-08-30T05:30:22.723Z,7.10
2018-08-30T05:32:51.118Z,4.80
2018-08-30T05:35:19.562Z,5.80
2018-08-30T05:37:47.953Z,5.70
2018-08-30T05:40:16.390Z,6.90
2018-08-30T05:42:44.823Z,5.70
2018-08-30T05:45:13.241Z,5.80
2018-08-30T05:47:41.651Z,7.47
2018-08-30T05:50:10.109Z,6.30
2018-08-30T05:52:38.517Z,5.07
2018-08-30T05:55:06.957Z,6.13
2018-08-30T05:57:35.358Z,5.07
2018-08-30T06:00:03.925Z,5.43
2018-08-30T06:02:32.373Z,5.90
2018-08-30T06:05:00.779Z,6.23
2018-08-30T06:07:29.178Z,6.20
2018-08-30T06:09:57.620Z,6.37
2018-08-30T06:12:26.343Z,5.40
2018-08-30T06:14:55.854Z,6.07
2018-08-30T06:17:24.379Z,7.00
2018-08-30T06:19:52.984Z,8.23
2018-08-30T06:22:24.088Z,6.93
2018-08-30T06:24:52.517Z,8.10
2018-08-30T06:27:20.955Z,8.00
2018-08-30T06:29:49.394Z,6.80
2018-08-30T06:32:17.865Z,6.30
2018-08-30T06:34:46.556Z,14.03
2018-08-30T06:37:15.004Z,7.50
2018-08-30T06:39:43.446Z,9.00
2018-08-30T06:42:12.370Z,9.13
2018-08-30T06:44:40.824Z,7.57
2018-08-30T06:47:09.269Z,9.70
2018-08-30T06:49:37.742Z,10.73
2018-08-30T06:52:06.315Z,11.20
2018-08-30T06:54:34.761Z,10.00
2018-08-30T06:57:03.420Z,9.10
2018-08-30T06:59:31.893Z,8.80
2018-08-30T07:02:00.321Z,8.80
2018-08-30T07:04:28.717Z,8.00
2018-08-30T07:06:57.154Z,7.53
2018-08-30T07:09:25.595Z,9.03
2018-08-30T07:11:54.048Z,9.20
2018-08-30T07:14:22.450Z,8.70
2018-08-30T07:16:50.854Z,8.03
2018-08-30T07:19:19.282Z,7.70
2018-08-30T07:21:47.738Z,9.43
2018-08-30T07:24:18.652Z,8.30
2018-08-30T07:26:49.511Z,7.20
2018-08-30T07:29:18.161Z,10.57
2018-08-30T07:31:46.598Z,9.53
2018-08-30T07:34:15.543Z,6.93
2018-08-30T07:36:43.962Z,6.40
2018-08-30T07:39:13.047Z,9.00
2018-08-30T07:41:41.669Z,5.67
2018-08-30T07:44:11.416Z,6.77
2018-08-30T07:46:39.796Z,7.87
2018-08-30T07:49:09.347Z,5.20
2018-08-30T07:51:37.823Z,9.63
2018-08-30T07:54:06.689Z,9.30
2018-08-30T07:56:35.111Z,9.43
2018-08-30T07:59:03.539Z,10.00
2018-08-30T08:01:31.978Z,5.47
2018-08-30T08:04:00.454Z,5.73
2018-08-30T08:06:28.876Z,6.37
2018-08-30T08:08:57.316Z,5.50
2018-08-30T08:11:25.753Z,6.43
2018-08-30T08:13:54.215Z,8.30
2018-08-30T08:16:22.624Z,6.57
2018-08-30T08:18:51.061Z,4.87
2018-08-30T08:21:19.697Z,6.63
2018-08-30T08:23:48.345Z,6.00
2018-08-30T08:26:16.771Z,5.53
2018-08-30T08:28:45.189Z,4.27
2018-08-30T08:31:13.677Z,4.83
2018-08-30T08:33:42.057Z,6.40
2018-08-30T08:36:10.701Z,5.90
2018-08-30T08:38:39.135Z,8.20
2018-08-30T08:41:07.616Z,7.10
2018-08-30T08:43:36.027Z,5.17
2018-08-30T08:46:04.494Z,6.30
2018-08-30T08:48:32.929Z,6.20
2018-08-30T08:51:01.415Z,5.87
2018-08-30T08:53:29.900Z,6.07
2018-08-30T08:55:58.310Z,6.77
2018-08-30T08:58:26.723Z,5.90
2018-08-30T09:00:55.153Z,5.27
2018-08-30T09:03:23.562Z,4.77
2018-08-30T09:05:51.994Z,7.33
2018-08-30T09:08:20.481Z,5.97
2018-08-30T09:10:48.887Z,6.60
2018-08-30T09:13:17.313Z,7.53
2018-08-30T09:15:45.734Z,8.60
2018-08-30T09:18:14.150Z,7.40
2018-08-30T09:20:42.589Z,9.77
2018-08-30T09:23:11.316Z,8.00
2018-08-30T09:25:39.721Z,5.87
2018-08-30T09:28:08.146Z,5.80
2018-08-30T09:30:36.585Z,6.40
2018-08-30T09:33:05.466Z,5.27
2018-08-30T09:35:33.893Z,6.80
2018-08-30T09:38:02.325Z,5.80
2018-08-30T09:40:30.785Z,5.10
2018-08-30T09:42:59.775Z,6.10
2018-08-30T09:45:28.484Z,6.00
2018-08-30T09:47:57.139Z,4.83
2018-08-30T09:50:25.587Z,4.60
2018-08-30T09:52:54.013Z,6.70
2018-08-30T09:55:23.702Z,6.30
2018-08-30T09:57:52.115Z,5.30
2018-08-30T10:00:25.865Z,6.87
2018-08-30T10:02:54.465Z,7.47
2018-08-30T10:05:23.089Z,7.07
2018-08-30T10:07:51.518Z,6.67
2018-08-30T10:10:19.950Z,22.77
2018-08-30T10:12:48.381Z,7.30
2018-08-30T10:15:16.802Z,6.90
2018-08-30T10:17:45.210Z,7.60
2018-08-30T10:20:13.889Z,6.23
2018-08-30T10:22:42.389Z,6.47
2018-08-30T10:25:10.817Z,6.30
2018-08-30T10:27:39.260Z,8.70
2018-08-30T10:30:07.701Z,8.33
2018-08-30T10:32:36.141Z,7.00
2018-08-30T10:35:04.807Z,7.97
2018-08-30T10:37:33.273Z,8.13
2018-08-30T10:40:01.689Z,7.77
2018-08-30T10:42:30.130Z,6.37
2018-08-30T10:44:58.818Z,7.67
2018-08-30T10:47:27.260Z,8.50
2018-08-30T10:49:55.856Z,7.90
2018-08-30T10:52:24.231Z,6.73
2018-08-30T10:54:52.914Z,8.07
2018-08-30T10:57:21.557Z,9.40
2018-08-30T10:59:50.018Z,7.07
2018-08-30T11:02:18.928Z,7.47
2018-08-30T11:04:52.232Z,7.47
2018-08-30T11:07:20.797Z,7.20
2018-08-30T11:09:49.288Z,6.13
2018-08-30T11:12:17.729Z,9.33
2018-08-30T11:14:46.253Z,6.47
2018-08-30T11:17:14.646Z,10.30
2018-08-30T11:19:43.075Z,8.03
2018-08-30T11:22:11.550Z,7.50
2018-08-30T11:24:39.985Z,7.33
2018-08-30T11:27:08.405Z,11.03
2018-08-30T11:29:41.729Z,10.87
2018-08-30T11:32:10.146Z,6.70
2018-08-30T11:34:38.605Z,6.80
2018-08-30T11:37:07.299Z,7.97
2018-08-30T11:39:36.249Z,9.07
2018-08-30T11:42:04.843Z,10.97
2018-08-30T11:44:33.255Z,9.43
2018-08-30T11:47:01.686Z,9.53
2018-08-30T11:49:30.129Z,10.17
2018-08-30T11:51:58.550Z,8.73
2018-08-30T11:54:26.989Z,9.30
2018-08-30T11:56:55.407Z,8.80
2018-08-30T11:59:23.805Z,7.83
2018-08-30T12:01:52.307Z,7.10
2018-08-30T12:04:20.789Z,8.83
2018-08-30T12:06:49.293Z,7.57
2018-08-30T12:09:17.746Z,7.10
2018-08-30T12:11:46.224Z,9.53
2018-08-30T12:14:14.649Z,9.47
2018-08-30T12:16:43.073Z,10.53
2018-08-30T12:19:11.487Z,7.33
2018-08-30T12:21:39.922Z,9.70
2018-08-30T12:24:08.333Z,8.50
2018-08-30T12:26:37.121Z,9.47
2018-08-30T12:29:05.661Z,10.17
2018-08-30T12:31:34.121Z,10.40
2018-08-30T12:34:02.758Z,9.33
2018-08-30T12:36:31.342Z,9.20
2018-08-30T12:38:59.815Z,8.80
2018-08-30T12:41:28.242Z,7.87
2018-08-30T12:43:56.797Z,8.40
2018-08-30T12:46:25.037Z,9.20
2018-08-30T12:48:53.517Z,11.17
2018-08-30T12:51:22.069Z,8.80
2018-08-30T12:53:50.473Z,8.67
2018-08-30T12:56:18.931Z,8.20
2018-08-30T12:58:47.321Z,10.03
2018-08-30T13:01:15.699Z,11.87
2018-08-30T13:03:44.187Z,11.47
2018-08-30T13:06:12.849Z,9.33
2018-08-30T13:08:41.232Z,10.60
2018-08-30T13:11:09.655Z,10.60
2018-08-30T13:13:38.094Z,8.90
2018-08-30T13:16:06.719Z,13.47
2018-08-30T13:18:35.160Z,10.53
2018-08-30T13:21:03.583Z,11.70
2018-08-30T13:23:32.872Z,10.20
2018-08-30T13:26:01.333Z,10.30
2018-08-30T13:28:29.851Z,10.20
2018-08-30T13:30:58.500Z,10.77
2018-08-30T13:33:26.820Z,10.33
2018-08-30T13:35:55.282Z,12.87
2018-08-30T13:38:23.772Z,8.83
2018-08-30T13:40:52.526Z,10.63
2018-08-30T13:43:20.841Z,12.07
2018-08-30T13:45:49.407Z,10.00
2018-08-30T13:48:18.035Z,10.23
2018-08-30T13:50:46.200Z,10.60
2018-08-30T13:53:15.051Z,10.60
2018-08-30T13:55:43.157Z,9.73
2018-08-30T13:58:12.047Z,10.37
2018-08-30T14:00:40.826Z,9.90
2018-08-30T14:03:08.908Z,13.60
2018-08-30T14:05:37.388Z,12.50
2018-08-30T14:08:05.888Z,11.23
2018-08-30T14:10:34.441Z,13.03
2018-08-30T14:13:02.944Z,13.57
2018-08-30T14:15:31.246Z,9.73
2018-08-30T14:17:59.431Z,10.33
2018-08-30T14:20:27.862Z,10.80
2018-08-30T14:22:56.679Z,10.93
2018-08-30T14:25:25.041Z,10.47
2018-08-30T14:27:53.422Z,10.37
2018-08-30T14:30:21.846Z,14.70
2018-08-30T14:32:50.287Z,10.40
2018-08-30T14:35:18.827Z,10.80
2018-08-30T14:37:47.165Z,12.00
2018-08-30T14:40:15.652Z,11.70
2018-08-30T14:42:46.420Z,12.50
2018-08-30T14:45:14.962Z,10.90
2018-08-30T14:47:43.528Z,11.53
2018-08-30T14:50:12.012Z,13.30
2018-08-30T14:52:40.821Z,11.90
2018-08-30T14:55:09.748Z,12.23
2018-08-30T14:57:38.608Z,13.57
2018-08-30T15:00:07.296Z,13.40
2018-08-30T15:02:35.682Z,12.07
2018-08-30T15:05:04.286Z,9.63
2018-08-30T15:07:32.570Z,11.17
2018-08-30T15:10:01.002Z,10.60
2018-08-30T15:12:29.475Z,14.23
2018-08-30T15:14:58.022Z,10.63
2018-08-30T15:17:26.612Z,9.43
2018-08-30T15:19:55.252Z,14.27
2018-08-30T15:22:23.793Z,12.90
2018-08-30T15:24:52.218Z,12.10
2018-08-30T15:27:20.713Z,15.90
2018-08-30T15:29:49.442Z,11.60
2018-08-30T15:32:18.099Z,12.33
2018-08-30T15:34:46.517Z,11.83
2018-08-30T15:37:14.934Z,10.63
2018-08-30T15:39:43.389Z,14.70
2018-08-30T15:42:11.905Z,15.13
2018-08-30T15:44:40.260Z,12.63
2018-08-30T15:47:08.740Z,11.73
2018-08-30T15:49:37.146Z,14.27
2018-08-30T15:52:05.958Z,10.47
2018-08-30T15:54:34.403Z,10.47
2018-08-30T15:57:02.881Z,12.50
2018-08-30T15:59:31.444Z,9.53
2018-08-30T16:01:59.926Z,11.40
2018-08-30T16:04:28.361Z,10.47
2018-08-30T16:06:56.786Z,12.37
2018-08-30T16:09:25.215Z,11.80
2018-08-30T16:11:53.657Z,14.67
2018-08-30T16:14:22.304Z,11.70
2018-08-30T16:16:51.126Z,9.20
2018-08-30T16:19:19.849Z,12.70
2018-08-30T16:21:48.292Z,11.27
2018-08-30T16:24:16.793Z,11.93
2018-08-30T16:26:45.247Z,9.80
2018-08-30T16:29:13.751Z,9.80
2018-08-30T16:31:42.129Z,12.80
2018-08-30T16:34:10.542Z,12.90
2018-08-30T16:36:38.974Z,11.00
2018-08-30T16:39:09.274Z,10.27
2018-08-30T16:41:37.615Z,11.40
2018-08-30T16:44:06.058Z,13.33
2018-08-30T16:46:34.511Z,11.83
2018-08-30T16:49:02.933Z,12.90
2018-08-30T16:51:32.226Z,11.57
2018-08-30T16:54:00.637Z,13.70
2018-08-30T16:56:29.091Z,13.10
2018-08-30T16:58:57.603Z,12.87
2018-08-30T17:01:26.015Z,10.50
2018-08-30T17:03:54.448Z,12.67
2018-08-30T17:06:23.014Z,11.60
2018-08-30T17:08:51.489Z,11.80
2018-08-30T17:11:19.862Z,11.90
2018-08-30T17:13:48.338Z,12.27
2018-08-30T17:16:16.777Z,12.87
2018-08-30T17:18:47.446Z,11.77
2018-08-30T17:21:16.112Z,15.37
2018-08-30T17:23:44.644Z,12.20
2018-08-30T17:26:13.222Z,12.90
2018-08-30T17:28:41.733Z,15.67
2018-08-30T17:31:10.396Z,14.30
2018-08-30T17:33:38.623Z,11.47
2018-08-30T17:36:07.145Z,11.90
2018-08-30T17:38:35.574Z,12.47
2018-08-30T17:41:04.069Z,12.93
2018-08-30T17:43:32.481Z,12.90
2018-08-30T17:46:00.937Z,14.80
2018-08-30T17:48:29.373Z,14.30
2018-08-30T17:50:58.589Z,14.47
2018-08-30T17:53:27.033Z,13.80
2018-08-30T17:55:55.555Z,10.87
2018-08-30T17:58:24.053Z,11.90
2018-08-30T18:00:52.545Z,12.90
2018-08-30T18:03:20.983Z,12.77
2018-08-30T18:05:49.482Z,13.77
2018-08-30T18:08:17.921Z,14.73
2018-08-30T18:10:46.460Z,13.40
2018-08-30T18:13:14.773Z,15.70
2018-08-30T18:15:43.190Z,18.50
2018-08-30T18:18:11.761Z,13.27
2018-08-30T18:20:40.140Z,16.63
2018-08-30T18:23:08.554Z,15.53
2018-08-30T18:25:37.035Z,12.43
2018-08-30T18:28:05.509Z,16.03
2018-08-30T18:30:33.926Z,16.87
2018-08-30T18:33:02.618Z,15.33
2018-08-30T18:35:31.038Z,17.03
2018-08-30T18:37:59.487Z,15.20
2018-08-30T18:40:27.929Z,14.77
2018-08-30T18:42:56.352Z,14.93
2018-08-30T18:45:24.785Z,16.07
2018-08-30T18:47:53.221Z,16.17
2018-08-30T18:50:21.651Z,16.80
2018-08-30T18:52:50.173Z,17.70
2018-08-30T18:55:18.828Z,15.17
2018-08-30T18:57:47.242Z,18.40
2018-08-30T19:00:15.678Z,18.40
2018-08-30T19:02:44.086Z,17.53
2018-08-30T19:05:12.746Z,19.70
2018-08-30T19:07:41.154Z,16.27
2018-08-30T19:10:09.609Z,16.90
2018-08-30T19:12:38.099Z,20.30
2018-08-30T19:15:11.819Z,18.97
2018-08-30T19:17:45.510Z,15.20
2018-08-30T19:20:14.046Z,19.07
2018-08-30T19:22:42.460Z,17.50
2018-08-30T19:25:13.541Z,16.17
2018-08-30T19:27:42.508Z,13.63
2018-08-30T19:30:16.361Z,21.10
2018-08-30T19:32:44.783Z,17.40
2018-08-30T19:35:18.689Z,19.20
2018-08-30T19:37:47.129Z,21.80
2018-08-30T19:40:20.927Z,19.30
2018-08-30T19:42:50.018Z,16.47
2018-08-30T19:45:19.729Z,17.97
2018-08-30T19:47:48.560Z,18.13
2018-08-30T19:50:16.996Z,16.77
2018-08-30T19:52:45.443Z,19.97
2018-08-30T19:55:13.865Z,15.90
2018-08-30T19:57:47.223Z,17.03
2018-08-30T20:00:15.782Z,16.30
2018-08-30T20:02:44.234Z,19.60
2018-08-30T20:05:12.697Z,22.13
2018-08-30T20:07:41.137Z,20.97
2018-08-30T20:10:09.810Z,17.53
2018-08-30T20:12:39.063Z,17.33
2018-08-30T20:15:08.406Z,19.87
2018-08-30T20:17:37.188Z,20.13
2018-08-30T20:20:07.600Z,19.33
2018-08-30T20:22:36.589Z,18.10
2018-08-30T20:25:17.920Z,18.00
2018-08-30T20:27:46.801Z,19.83
2018-08-30T20:30:16.035Z,16.10
2018-08-30T20:32:44.520Z,17.60
2018-08-30T20:35:13.883Z,20.30
2018-08-30T20:37:42.792Z,20.83
2018-08-30T20:40:12.213Z,21.50
2018-08-30T20:42:40.692Z,18.03
2018-08-30T20:45:09.333Z,21.10
2018-08-30T20:47:38.003Z,19.47
2018-08-30T20:50:06.790Z,15.90
2018-08-30T20:52:35.763Z,18.93
2018-08-30T20:55:06.458Z,19.20
2018-08-30T20:57:34.937Z,19.70
2018-08-30T21:00:03.454Z,20.70
2018-08-30T21:02:31.888Z,18.20
2018-08-30T21:05:00.361Z,17.60
2018-08-30T21:07:28.786Z,18.97
2018-08-30T21:09:57.200Z,22.33
2018-08-30T21:12:25.854Z,19.87
2018-08-30T21:14:54.332Z,20.23
2018-08-30T21:17:22.765Z,19.57
2018-08-30T21:19:51.184Z,20.80
2018-08-30T21:22:19.625Z,16.87
2018-08-30T21:24:48.079Z,19.10
2018-08-30T21:27:16.517Z,21.13
2018-08-30T21:29:44.953Z,24.43
2018-08-30T21:32:13.380Z,20.67
2018-08-30T21:34:41.810Z,18.27
2018-08-30T21:37:10.229Z,20.90
2018-08-30T21:39:38.683Z,20.87
2018-08-30T21:42:07.334Z,18.10
2018-08-30T21:44:35.787Z,20.27
2018-08-30T21:47:04.249Z,20.47
2018-08-30T21:49:32.673Z,22.90
2018-08-30T21:52:01.186Z,21.63
2018-08-30T21:54:29.618Z,26.83
2018-08-30T21:56:58.317Z,28.00
2018-08-30T21:59:26.764Z,26.00
2018-08-30T22:01:55.196Z,21.30
2018-08-30T22:04:23.649Z,21.13
2018-08-30T22:06:52.070Z,24.33
2018-08-30T22:09:20.501Z,19.50
2018-08-30T22:11:48.956Z,21.43
2018-08-30T22:14:17.429Z,20.37
2018-08-30T22:16:46.114Z,21.30
2018-08-30T22:19:14.581Z,21.10
2018-08-30T22:21:43.026Z,21.90
2018-08-30T22:24:11.527Z,18.47
2018-08-30T22:26:40.205Z,23.10
2018-08-30T22:29:08.630Z,24.83
2018-08-30T22:31:37.296Z,22.07
2018-08-30T22:34:05.785Z,21.03
2018-08-30T22:36:34.216Z,20.93
2018-08-30T22:39:02.770Z,18.93
2018-08-30T22:41:31.197Z,20.10
2018-08-30T22:43:59.700Z,20.07
2018-08-30T22:46:28.337Z,21.67
2018-08-30T22:48:56.783Z,20.53
2018-08-30T22:51:25.254Z,23.33
2018-08-30T22:53:53.685Z,19.07
2018-08-30T22:56:22.131Z,19.53
2018-08-30T22:58:50.588Z,20.27
2018-08-30T23:01:19.246Z,20.20
2018-08-30T23:03:47.689Z,16.53
2018-08-30T23:06:16.116Z,21.00
2018-08-30T23:08:44.585Z,18.83
2018-08-30T23:11:13.041Z,19.30
2018-08-30T23:13:41.474Z,22.07
2018-08-30T23:16:09.952Z,20.27
2018-08-30T23:18:38.394Z,16.97
2018-08-30T23:21:06.891Z,24.73
2018-08-30T23:23:35.346Z,20.47
2018-08-30T23:26:03.770Z,17.73
2018-08-30T23:28:32.434Z,22.13
2018-08-30T23:31:00.871Z,20.87
2018-08-30T23:33:29.288Z,23.63
2018-08-30T23:35:57.726Z,21.50
2018-08-30T23:38:26.400Z,21.43
2018-08-30T23:40:54.815Z,19.47
2018-08-30T23:54:48.240Z,19.60
2018-08-30T23:57:16.897Z,24.17
2018-08-30T23:59:56.533Z,20.83
